createdAt,value
2024-03-13T00:01:11.775Z,14.13
2024-03-13T00:03:39.183Z,14.00
2024-03-13T00:06:06.683Z,13.97
2024-03-13T00:08:33.847Z,13.37
2024-03-13T00:11:01.147Z,13.87
2024-03-13T00:13:30.605Z,13.90
2024-03-13T00:15:59.429Z,13.93
2024-03-13T00:18:26.843Z,14.13
2024-03-13T00:20:53.988Z,14.23
2024-03-13T00:23:21.191Z,14.30
2024-03-13T00:25:48.418Z,14.20
2024-03-13T00:28:15.725Z,13.83
2024-03-13T00:30:43.118Z,13.80
2024-03-13T00:33:10.382Z,13.90
2024-03-13T00:35:37.854Z,14.07
2024-03-13T00:38:05.469Z,13.97
2024-03-13T00:40:33.712Z,13.57
2024-03-13T00:43:01.235Z,14.07
2024-03-13T00:45:28.690Z,13.67
2024-03-13T00:47:56.202Z,13.67
2024-03-13T00:50:24.468Z,14.20
2024-03-13T00:52:52.000Z,14.27
2024-03-13T00:55:19.287Z,14.10
2024-03-13T00:57:48.273Z,13.70
2024-03-13T01:00:20.006Z,13.73
2024-03-13T01:02:47.338Z,13.70
2024-03-13T01:05:18.553Z,13.77
2024-03-13T01:07:49.966Z,14.13
2024-03-13T01:10:18.158Z,13.73
2024-03-13T01:12:45.591Z,14.23
2024-03-13T01:15:16.521Z,14.23
2024-03-13T01:17:44.440Z,14.67
2024-03-13T01:20:16.648Z,14.50
2024-03-13T01:22:45.520Z,15.03
2024-03-13T01:25:12.779Z,14.67
2024-03-13T01:27:41.485Z,14.37
2024-03-13T01:30:10.046Z,14.20
2024-03-13T01:32:39.086Z,14.13
2024-03-13T01:35:08.051Z,14.83
2024-03-13T01:37:53.717Z,14.27
2024-03-13T01:40:27.344Z,14.80
2024-03-13T01:43:13.567Z,14.07
2024-03-13T01:46:08.697Z,14.83
2024-03-13T01:48:56.798Z,14.10
2024-03-13T01:51:42.821Z,14.40
2024-03-13T01:54:28.684Z,14.70
2024-03-13T01:57:14.235Z,14.80
2024-03-13T02:00:11.523Z,15.00
2024-03-13T02:02:42.372Z,14.47
2024-03-13T02:05:09.886Z,14.60
2024-03-13T02:07:37.331Z,14.30
2024-03-13T02:10:05.778Z,14.60
2024-03-13T02:12:33.141Z,14.30
2024-03-13T02:15:00.468Z,14.40
2024-03-13T02:17:28.098Z,14.50
2024-03-13T02:19:57.278Z,14.03
2024-03-13T02:22:25.505Z,14.10
2024-03-13T02:24:53.802Z,14.30
2024-03-13T02:27:21.230Z,14.60
2024-03-13T02:29:50.578Z,14.47
2024-03-13T02:32:17.745Z,14.70
2024-03-13T02:34:47.693Z,14.67
2024-03-13T02:37:14.922Z,14.20
2024-03-13T02:39:42.533Z,13.93
2024-03-13T02:42:11.229Z,14.50
2024-03-13T02:44:38.433Z,14.50
2024-03-13T02:47:05.871Z,14.50
2024-03-13T02:49:33.199Z,14.30
2024-03-13T02:52:00.487Z,14.33
2024-03-13T02:54:27.870Z,14.60
2024-03-13T02:56:54.979Z,14.67
2024-03-13T02:59:22.223Z,14.40
2024-03-13T03:01:50.210Z,14.57
2024-03-13T03:04:18.159Z,14.60
2024-03-13T03:06:47.397Z,14.67
2024-03-13T03:09:14.799Z,14.90
2024-03-13T03:11:44.790Z,14.57
2024-03-13T03:14:12.030Z,14.30
2024-03-13T03:16:39.189Z,14.77
2024-03-13T03:19:06.407Z,14.63
2024-03-13T03:21:34.412Z,14.30
2024-03-13T03:24:02.086Z,14.37
2024-03-13T03:26:29.694Z,14.73
2024-03-13T03:28:58.050Z,15.00
2024-03-13T03:31:25.447Z,14.60
2024-03-13T03:33:53.331Z,14.47
2024-03-13T03:36:21.074Z,14.77
2024-03-13T03:38:49.288Z,14.37
2024-03-13T03:41:16.679Z,14.50
2024-03-13T03:43:45.454Z,14.37
2024-03-13T03:46:13.803Z,14.80
2024-03-13T03:48:42.042Z,14.73
2024-03-13T03:51:11.547Z,14.60
2024-03-13T03:53:39.301Z,14.43
2024-03-13T03:56:08.712Z,14.47
2024-03-13T03:58:36.215Z,14.90
2024-03-13T04:01:03.590Z,14.43
2024-03-13T04:03:31.123Z,14.70
2024-03-13T04:05:58.655Z,14.43
2024-03-13T04:08:25.770Z,15.20
2024-03-13T04:10:53.389Z,14.90
2024-03-13T04:13:21.333Z,14.80
2024-03-13T04:15:48.674Z,15.03
2024-03-13T04:18:15.940Z,14.77
2024-03-13T04:20:44.502Z,14.93
2024-03-13T04:23:13.716Z,14.77
2024-03-13T04:25:45.940Z,14.73
2024-03-13T04:28:13.347Z,14.90
2024-03-13T04:30:43.526Z,14.77
2024-03-13T04:33:11.156Z,14.67
2024-03-13T04:35:38.333Z,14.73
2024-03-13T04:38:06.084Z,15.30
2024-03-13T04:40:33.306Z,14.90
2024-03-13T04:43:01.605Z,14.67
2024-03-13T04:45:28.812Z,14.67
2024-03-13T04:47:56.185Z,14.83
2024-03-13T04:50:23.511Z,14.90
2024-03-13T04:52:50.752Z,14.63
2024-03-13T04:55:18.028Z,14.80
2024-03-13T04:57:45.251Z,14.70
2024-03-13T05:00:12.805Z,14.80
2024-03-13T05:02:41.086Z,14.87
2024-03-13T05:05:17.260Z,14.33
2024-03-13T05:07:45.033Z,14.67
2024-03-13T05:10:12.918Z,15.17
2024-03-13T05:12:40.133Z,15.17
2024-03-13T05:15:08.388Z,15.37
2024-03-13T05:17:38.393Z,15.27
2024-03-13T05:20:08.688Z,15.20
2024-03-13T05:22:36.221Z,15.07
2024-03-13T05:25:06.421Z,15.10
2024-03-13T05:27:34.129Z,15.77
2024-03-13T05:30:01.374Z,15.07
2024-03-13T05:32:28.666Z,15.63
2024-03-13T05:34:57.195Z,15.33
2024-03-13T05:37:24.412Z,15.17
2024-03-13T05:39:53.976Z,15.00
2024-03-13T05:42:21.273Z,15.53
2024-03-13T05:44:48.428Z,15.10
2024-03-13T05:47:16.316Z,15.67
2024-03-13T05:49:43.550Z,15.73
2024-03-13T05:52:10.800Z,15.83
2024-03-13T05:54:38.096Z,15.70
2024-03-13T05:57:05.501Z,15.90
2024-03-13T05:59:32.676Z,15.60
2024-03-13T06:02:00.091Z,15.60
2024-03-13T06:04:27.479Z,16.17
2024-03-13T06:06:54.859Z,16.23
2024-03-13T06:09:24.456Z,16.13
2024-03-13T06:11:51.639Z,16.30
2024-03-13T06:14:18.779Z,16.77
2024-03-13T06:16:46.011Z,16.53
2024-03-13T06:19:13.528Z,16.40
2024-03-13T06:21:40.997Z,16.80
2024-03-13T06:24:08.164Z,16.33
2024-03-13T06:26:35.420Z,16.03
2024-03-13T06:29:21.014Z,16.20
2024-03-13T06:31:48.348Z,16.33
2024-03-13T06:34:15.527Z,16.37
2024-03-13T06:36:42.727Z,16.40
2024-03-13T06:39:10.905Z,16.50
2024-03-13T06:41:38.100Z,16.07
2024-03-13T06:44:06.942Z,16.40
2024-03-13T06:46:34.883Z,16.20
2024-03-13T06:49:02.070Z,16.00
2024-03-13T06:51:29.348Z,15.47
2024-03-13T06:53:56.622Z,16.20
2024-03-13T06:56:24.040Z,15.60
2024-03-13T06:58:51.870Z,15.73
2024-03-13T07:01:20.350Z,16.20
2024-03-13T07:03:47.717Z,16.57
2024-03-13T07:06:16.234Z,16.47
2024-03-13T07:08:43.536Z,16.57
2024-03-13T07:11:10.902Z,16.20
2024-03-13T07:13:38.316Z,15.90
2024-03-13T07:16:05.963Z,15.60
2024-03-13T07:18:36.418Z,16.50
2024-03-13T07:21:04.863Z,15.83
2024-03-13T07:23:32.041Z,16.13
2024-03-13T07:26:00.920Z,16.30
2024-03-13T07:28:28.205Z,16.30
2024-03-13T07:30:56.108Z,16.57
2024-03-13T07:33:23.302Z,16.37
2024-03-13T07:35:50.513Z,16.27
2024-03-13T07:38:17.758Z,16.70
2024-03-13T07:40:45.656Z,16.63
2024-03-13T07:43:12.958Z,15.43
2024-03-13T07:45:44.414Z,16.23
2024-03-13T07:48:11.909Z,16.00
2024-03-13T07:50:40.731Z,15.87
2024-03-13T07:53:08.144Z,15.63
2024-03-13T07:55:36.217Z,15.43
2024-03-13T07:58:04.566Z,15.73
2024-03-13T08:00:37.258Z,16.37
2024-03-13T08:03:04.988Z,16.83
2024-03-13T08:05:33.631Z,16.13
2024-03-13T09:07:12.888Z,16.50
2024-03-13T09:09:40.100Z,16.70
2024-03-13T09:12:09.141Z,16.27
2024-03-13T09:14:39.290Z,16.63
2024-03-13T09:17:12.702Z,17.00
2024-03-13T09:19:40.206Z,17.47
2024-03-13T09:22:09.430Z,16.90
2024-03-13T09:24:36.671Z,16.63
2024-03-13T09:27:04.020Z,16.57
2024-03-13T09:29:33.200Z,17.63
2024-03-13T09:32:00.705Z,17.87
2024-03-13T09:34:32.067Z,16.90
2024-03-13T09:37:01.251Z,17.10
2024-03-13T09:39:28.550Z,16.90
2024-03-13T09:41:59.141Z,17.07
2024-03-13T09:44:27.785Z,17.10
2024-03-13T09:46:57.312Z,17.27
2024-03-13T09:49:27.192Z,16.87
2024-03-13T09:51:55.331Z,16.77
2024-03-13T09:54:22.903Z,16.60
2024-03-13T09:56:51.340Z,16.30
2024-03-13T09:59:18.513Z,16.60
2024-03-13T10:01:53.090Z,16.30
2024-03-13T10:04:26.229Z,16.40
2024-03-13T10:07:00.404Z,16.63
2024-03-13T10:09:36.940Z,16.50
2024-03-13T10:12:06.593Z,16.20
2024-03-13T10:14:34.902Z,16.63
2024-03-13T10:17:07.199Z,16.57
2024-03-13T10:19:40.505Z,16.20
2024-03-13T10:22:08.794Z,16.57
2024-03-13T10:24:38.174Z,16.63
2024-03-13T10:27:09.139Z,16.80
2024-03-13T10:29:36.670Z,16.33
2024-03-13T10:32:06.127Z,15.97
2024-03-13T10:34:37.103Z,16.40
2024-03-13T10:37:15.025Z,16.53
2024-03-13T10:39:45.470Z,16.30
2024-03-13T10:42:13.122Z,16.17
2024-03-13T10:44:41.770Z,16.27
2024-03-13T10:47:10.906Z,16.07
2024-03-13T10:49:38.203Z,16.47
2024-03-13T10:52:13.893Z,15.67
2024-03-13T10:54:42.682Z,16.53
2024-03-13T10:57:18.591Z,15.90
2024-03-13T10:59:49.935Z,16.20
2024-03-13T11:02:17.276Z,15.93
2024-03-13T11:04:46.002Z,15.03
2024-03-13T11:07:14.059Z,15.63
2024-03-13T11:09:41.961Z,15.03
2024-03-13T11:12:21.146Z,15.50
2024-03-13T11:14:53.682Z,15.10
2024-03-13T11:17:22.587Z,14.70
2024-03-13T11:20:09.801Z,14.53
2024-03-13T11:22:37.823Z,14.80
2024-03-13T11:25:13.728Z,14.67
2024-03-13T11:27:50.855Z,14.77
2024-03-13T11:30:22.122Z,14.60
2024-03-13T11:32:52.850Z,14.53
2024-03-13T11:35:20.838Z,14.67
2024-03-13T11:37:48.877Z,14.70
2024-03-13T11:40:17.384Z,14.73
2024-03-13T11:42:45.238Z,14.30
2024-03-13T11:45:17.780Z,14.23
2024-03-13T11:47:49.672Z,14.30
2024-03-13T11:50:17.164Z,14.60
2024-03-13T11:53:02.494Z,14.90
2024-03-13T11:55:31.424Z,14.40
2024-03-13T11:58:04.269Z,14.17
2024-03-13T12:00:31.754Z,13.73
2024-03-13T12:02:59.052Z,14.27
2024-03-13T12:05:37.518Z,14.07
2024-03-13T12:08:05.665Z,14.40
2024-03-13T12:10:33.035Z,14.37
2024-03-13T12:13:00.350Z,14.47
2024-03-13T12:15:28.630Z,13.83
2024-03-13T12:17:59.259Z,14.50
2024-03-13T12:20:29.989Z,14.10
2024-03-13T12:23:00.026Z,14.40
2024-03-13T12:25:27.515Z,14.30
2024-03-13T12:27:54.952Z,14.33
2024-03-13T12:30:23.037Z,13.90
2024-03-13T12:33:01.680Z,14.07
2024-03-13T12:35:30.525Z,14.30
2024-03-13T12:37:59.797Z,14.40
2024-03-13T12:40:28.035Z,14.13
2024-03-13T12:42:55.838Z,14.57
2024-03-13T12:45:24.455Z,14.50
2024-03-13T12:47:52.074Z,14.43
2024-03-13T12:50:20.185Z,14.50
2024-03-13T12:52:48.194Z,14.60
2024-03-13T12:55:22.766Z,14.50
2024-03-13T12:57:50.855Z,14.07
2024-03-13T13:00:22.271Z,14.17
2024-03-13T13:02:55.407Z,14.10
2024-03-13T13:05:23.018Z,14.00
2024-03-13T13:07:53.578Z,14.03
2024-03-13T13:10:26.438Z,14.03
2024-03-13T13:12:54.862Z,13.87
2024-03-13T13:15:23.530Z,14.23
2024-03-13T13:17:51.381Z,13.77
2024-03-13T13:20:24.724Z,14.27
2024-03-13T13:22:53.563Z,13.93
2024-03-13T13:25:23.335Z,14.40
2024-03-13T13:27:55.795Z,14.07
2024-03-13T13:30:23.466Z,14.27
2024-03-13T13:32:52.557Z,13.97
2024-03-13T13:35:20.114Z,14.30
2024-03-13T13:37:48.149Z,14.40
2024-03-13T13:40:24.920Z,14.37
2024-03-13T13:42:56.284Z,14.27
2024-03-13T13:45:24.864Z,14.03
2024-03-13T13:47:53.208Z,14.23
2024-03-13T13:50:21.752Z,14.17
2024-03-13T13:52:49.333Z,14.23
2024-03-13T13:55:18.021Z,14.77
2024-03-13T13:57:52.290Z,15.20
2024-03-13T14:00:24.676Z,14.70
2024-03-13T14:02:54.475Z,14.60
2024-03-13T14:05:22.529Z,14.70
2024-03-13T14:07:53.023Z,14.43
2024-03-13T14:10:20.967Z,14.10
2024-03-13T14:12:50.011Z,14.20
2024-03-13T14:15:21.319Z,14.47
2024-03-13T14:17:51.637Z,14.40
2024-03-13T14:20:23.223Z,14.13
2024-03-13T14:22:55.401Z,14.60
2024-03-13T14:25:24.722Z,14.27
2024-03-13T14:27:51.964Z,14.30
2024-03-13T14:30:19.884Z,14.33
2024-03-13T14:32:48.028Z,14.27
2024-03-13T14:35:16.703Z,14.30
2024-03-13T14:37:44.544Z,14.17
2024-03-13T14:40:19.345Z,14.33
2024-03-13T14:42:48.343Z,14.23
2024-03-13T14:45:16.900Z,14.17
2024-03-13T14:47:46.904Z,14.00
2024-03-13T14:50:20.253Z,14.33
2024-03-13T14:55:23.179Z,14.00
2024-03-13T14:57:50.400Z,13.27
2024-03-13T15:00:18.255Z,13.33
2024-03-13T15:02:45.814Z,13.93
2024-03-13T15:05:13.998Z,13.57
2024-03-13T15:07:41.521Z,14.13
2024-03-13T15:10:12.704Z,14.13
2024-03-13T15:12:41.115Z,14.03
2024-03-13T15:15:11.595Z,13.57
2024-03-13T15:17:44.606Z,13.80
2024-03-13T15:20:14.763Z,14.13
2024-03-13T15:22:41.952Z,13.93
2024-03-13T15:25:11.393Z,14.30
2024-03-13T15:27:40.414Z,13.77
2024-03-13T15:30:09.293Z,13.40
2024-03-13T15:32:38.052Z,13.27
2024-03-13T15:35:09.323Z,13.17
2024-03-13T15:37:37.155Z,12.70
2024-03-13T15:40:23.080Z,13.03
2024-03-13T15:42:50.756Z,12.70
2024-03-13T15:45:19.376Z,12.77
2024-03-13T15:47:47.781Z,13.00
2024-03-13T15:50:24.832Z,12.77
2024-03-13T15:52:57.568Z,12.90
2024-03-13T15:55:24.893Z,12.90
2024-03-13T15:57:52.964Z,12.87
2024-03-13T16:00:24.833Z,12.73
2024-03-13T16:02:56.546Z,12.33
2024-03-13T16:05:25.187Z,12.60
2024-03-13T16:08:08.335Z,13.17
2024-03-13T16:10:35.604Z,12.80
2024-03-13T16:13:02.934Z,12.20
2024-03-13T16:15:36.697Z,12.17
2024-03-13T16:18:05.392Z,12.53
2024-03-13T16:20:32.678Z,12.60
2024-03-13T16:23:00.481Z,13.17
2024-03-13T16:25:28.537Z,12.60
2024-03-13T16:27:57.700Z,12.30
2024-03-13T16:30:25.579Z,12.23
2024-03-13T16:32:53.004Z,11.50
2024-03-13T16:35:22.187Z,12.23
2024-03-13T16:37:49.599Z,12.17
2024-03-13T16:40:19.441Z,12.07
2024-03-13T16:42:47.070Z,12.37
2024-03-13T16:45:17.777Z,12.10
2024-03-13T16:47:45.177Z,12.53
2024-03-13T16:50:16.380Z,12.77
2024-03-13T16:52:44.137Z,13.00
2024-03-13T16:55:12.928Z,12.90
2024-03-13T16:57:41.790Z,12.97
2024-03-13T17:00:17.097Z,12.70
2024-03-13T17:02:45.781Z,12.63
2024-03-13T17:05:15.860Z,12.53
2024-03-13T17:07:44.094Z,12.77
2024-03-13T17:10:11.348Z,13.17
2024-03-13T17:12:39.825Z,12.63
2024-03-13T17:15:08.001Z,13.00
2024-03-13T17:17:35.805Z,12.23
2024-03-13T17:20:03.099Z,11.83
2024-03-13T17:22:30.293Z,12.20
2024-03-13T17:24:57.446Z,12.00
2024-03-13T17:27:24.781Z,12.37
2024-03-13T17:29:51.999Z,12.37
2024-03-13T17:32:20.996Z,12.20
2024-03-13T17:34:50.345Z,12.03
2024-03-13T17:37:17.564Z,11.90
2024-03-13T17:39:44.869Z,11.90
2024-03-13T17:42:14.896Z,12.27
2024-03-13T17:44:42.304Z,11.77
2024-03-13T17:47:09.550Z,11.90
2024-03-13T17:49:37.468Z,12.03
2024-03-13T17:52:04.775Z,12.23
2024-03-13T17:54:33.079Z,12.80
2024-03-13T17:57:00.473Z,12.17
2024-03-13T17:59:27.731Z,11.40
2024-03-13T18:01:54.981Z,11.90
2024-03-13T18:04:22.310Z,10.93
2024-03-13T18:06:49.659Z,10.90
2024-03-13T18:09:17.094Z,11.17
2024-03-13T18:11:44.456Z,11.70
2024-03-13T18:14:13.031Z,11.93
2024-03-13T18:16:41.373Z,12.10
2024-03-13T18:19:09.445Z,12.17
2024-03-13T18:21:36.911Z,12.10
2024-03-13T18:24:04.526Z,11.63
2024-03-13T18:26:34.864Z,11.43
2024-03-13T18:29:02.116Z,11.60
2024-03-13T18:31:29.369Z,11.77
2024-03-13T18:33:56.899Z,12.03
2024-03-13T18:36:24.807Z,12.57
2024-03-13T18:38:52.263Z,12.20
2024-03-13T18:41:21.295Z,11.63
2024-03-13T18:43:48.482Z,12.10
2024-03-13T18:46:16.609Z,11.83
2024-03-13T18:48:44.050Z,12.00
2024-03-13T18:51:11.346Z,11.97
2024-03-13T18:53:38.652Z,11.70
2024-03-13T18:56:07.224Z,11.63
2024-03-13T18:58:36.073Z,11.60
2024-03-13T19:01:04.636Z,12.33
2024-03-13T19:03:31.959Z,12.33
2024-03-13T19:05:59.815Z,11.87
2024-03-13T19:08:29.447Z,11.50
2024-03-13T19:10:56.784Z,12.00
2024-03-13T19:13:23.980Z,11.63
2024-03-13T19:15:55.501Z,11.90
2024-03-13T19:18:22.871Z,11.43
2024-03-13T19:20:50.084Z,11.40
2024-03-13T19:23:17.453Z,11.73
2024-03-13T19:25:44.574Z,11.87
2024-03-13T19:28:11.822Z,12.13
2024-03-13T19:30:39.079Z,10.83
2024-03-13T19:33:06.597Z,11.50
2024-03-13T19:35:36.020Z,11.47
2024-03-13T19:38:03.507Z,10.77
2024-03-13T19:40:30.693Z,11.80
2024-03-13T19:43:01.776Z,11.77
2024-03-13T19:45:29.369Z,10.63
2024-03-13T19:47:57.984Z,11.60
2024-03-13T19:50:25.293Z,11.53
2024-03-13T19:52:52.537Z,11.67
2024-03-13T19:55:19.735Z,11.73
2024-03-13T19:57:46.965Z,11.40
2024-03-13T20:00:18.896Z,11.57
2024-03-13T20:02:46.566Z,11.60
2024-03-13T20:05:14.675Z,11.77
2024-03-13T20:07:44.601Z,11.10
2024-03-13T20:10:14.971Z,11.50
2024-03-13T20:12:42.549Z,11.00
2024-03-13T20:15:10.499Z,11.83
2024-03-13T20:17:39.616Z,11.50
2024-03-13T20:20:07.631Z,11.77
2024-03-13T20:22:36.842Z,12.00
2024-03-13T20:25:04.528Z,11.93
2024-03-13T20:27:31.937Z,12.23
2024-03-13T20:29:59.296Z,12.57
2024-03-13T20:32:26.597Z,12.00
2024-03-13T20:34:53.868Z,12.00
2024-03-13T20:37:23.286Z,11.73
2024-03-13T20:39:53.422Z,11.80
2024-03-13T20:42:23.629Z,11.60
2024-03-13T20:44:50.858Z,12.23
2024-03-13T20:47:18.251Z,12.00
2024-03-13T20:49:45.866Z,12.23
2024-03-13T20:52:13.040Z,12.17
2024-03-13T20:54:40.641Z,12.47
2024-03-13T20:57:08.033Z,11.90
2024-03-13T20:59:35.945Z,12.10
2024-03-13T21:02:05.733Z,12.07
2024-03-13T21:04:32.981Z,12.20
2024-03-13T21:07:00.160Z,12.77
2024-03-13T21:09:28.113Z,12.23
2024-03-13T21:11:57.040Z,12.57
2024-03-13T21:14:24.640Z,12.00
2024-03-13T21:16:52.840Z,12.23
2024-03-13T21:19:20.330Z,11.97
2024-03-13T21:21:47.575Z,12.30
2024-03-13T21:24:14.994Z,12.20
2024-03-13T21:26:43.209Z,11.53
2024-03-13T21:29:15.666Z,11.50
2024-03-13T21:31:43.450Z,11.83
2024-03-13T21:34:17.156Z,12.20
2024-03-13T21:36:48.660Z,12.60
2024-03-13T21:39:15.992Z,12.43
2024-03-13T21:41:43.905Z,12.33
2024-03-13T21:44:11.162Z,12.30
2024-03-13T21:46:38.541Z,12.23
2024-03-13T21:49:05.947Z,12.30
2024-03-13T21:51:33.392Z,12.00
2024-03-13T21:54:02.138Z,12.57
2024-03-13T21:56:32.709Z,12.30
2024-03-13T21:59:01.055Z,12.50
2024-03-13T22:01:28.344Z,12.27
2024-03-13T22:03:58.453Z,13.20
2024-03-13T22:06:26.526Z,12.90
2024-03-13T22:08:53.832Z,13.17
2024-03-13T22:11:21.156Z,13.30
2024-03-13T22:13:48.575Z,13.37
2024-03-13T22:16:16.378Z,12.13
2024-03-13T22:18:43.814Z,12.30
2024-03-13T22:21:11.431Z,12.07
2024-03-13T22:23:40.309Z,11.67
2024-03-13T22:26:09.273Z,11.63
2024-03-13T22:28:36.440Z,12.10
2024-03-13T22:31:03.749Z,12.27
2024-03-13T22:33:31.149Z,12.27
2024-03-13T22:35:58.486Z,12.47
2024-03-13T22:38:25.631Z,12.40
2024-03-13T22:40:53.068Z,12.37
2024-03-13T22:43:20.222Z,12.00
2024-03-13T22:45:48.420Z,12.10
2024-03-13T22:48:15.821Z,11.83
2024-03-13T22:50:43.162Z,12.00
2024-03-13T22:53:10.450Z,12.20
2024-03-13T22:55:37.667Z,12.37
2024-03-13T22:58:04.955Z,11.80
2024-03-13T23:00:32.186Z,12.50
2024-03-13T23:02:59.371Z,11.60
2024-03-13T23:05:26.544Z,12.07
2024-03-13T23:07:53.963Z,12.03
2024-03-13T23:10:24.061Z,11.70
2024-03-13T23:12:52.828Z,11.93
2024-03-13T23:15:20.153Z,12.07
2024-03-13T23:17:47.442Z,12.00
2024-03-13T23:20:14.863Z,12.00
2024-03-13T23:22:42.849Z,11.50
2024-03-13T23:25:11.592Z,11.77
2024-03-13T23:27:39.695Z,12.20
2024-03-13T23:30:08.875Z,11.57
2024-03-13T23:32:36.700Z,11.90
2024-03-13T23:35:07.193Z,11.90
2024-03-13T23:37:37.280Z,11.67
2024-03-13T23:40:06.062Z,12.07
2024-03-13T23:42:44.582Z,11.37
2024-03-13T23:45:14.118Z,11.40
2024-03-13T23:47:42.767Z,11.50
2024-03-13T23:50:13.668Z,11.70
2024-03-13T23:52:41.443Z,12.10
2024-03-13T23:55:08.716Z,11.80
2024-03-13T23:57:36.458Z,11.90
